< Typhoon 199909 1999 Season Typhoon 199911 >
Typhoon 199910 (SAM)
General InformationTrack Information on Google MapsDetailed Wind InformationList of All Images || NewsDisaster Info.ResourceGoogle EarthGE AnimationAtom FeedGeoJSON
Detalied Best Track (Time Zone = UTC)
Year Month Day Hour Lat. Long. Pressure (hPa) Wind (kt) Class Image Chart
1999 8 17 18 12.2 129.2 1004 0 2 Image Chart
1999 8 18 00 12.3 128.7 1004 0 2 Image Chart
1999 8 18 06 13.0 127.9 1004 0 2 Image Chart
1999 8 18 12 13.6 127.0 1004 0 2 Image Chart
1999 8 18 18 14.4 126.0 1004 0 2 Image Chart
1999 8 19 00 14.9 125.1 1002 0 2 Image Chart
1999 8 19 06 15.7 124.5 998 40 3 Image Chart
1999 8 19 12 16.5 123.9 994 40 3 Image Chart
1999 8 19 18 17.5 123.2 992 45 3 Image Chart
1999 8 20 00 18.4 122.3 990 45 3 Image Chart
1999 8 20 06 18.6 120.8 990 45 3 Image Chart
1999 8 20 12 18.6 120.0 985 50 4 Image Chart
1999 8 20 18 18.9 119.1 985 50 4 Image Chart
1999 8 21 00 19.2 118.5 980 55 4 Image Chart
1999 8 21 06 19.7 117.6 980 55 4 Image Chart
1999 8 21 12 20.3 116.9 980 55 4 Image Chart
1999 8 21 18 20.9 115.7 980 55 4 Image Chart
1999 8 22 00 21.8 115.2 980 55 4 Image Chart
1999 8 22 06 22.2 114.5 980 55 4 Image Chart
1999 8 22 12 22.5 113.9 985 50 4 Image Chart
1999 8 22 18 23.0 113.1 994 40 3 Image Chart
1999 8 23 00 23.5 112.6 1000 0 2 Image Chart
1999 8 23 06 23.8 112.5 1004 0 2 Image Chart
1999 8 23 12 24.3 112.8 1006 0 2 Image Chart
1999 8 23 18 25.0 113.2 1008 0 2 Image Chart
1999 8 24 00 25.7 113.9 1008 0 2 Image Chart
1999 8 24 06 26.7 114.1 1008 0 2 Image Chart
1999 8 24 12 28.0 114.7 1008 0 2 Image Chart
1999 8 24 18 30.2 115.7 1006 0 6 Image Chart
1999 8 25 00 31.0 117.2 1006 0 6 Image Chart
1999 8 25 06 31.7 119.4 1004 0 6 Image Chart
1999 8 25 12 32.5 121.6 1004 0 6 Image Chart
1999 8 25 18 33.3 123.4 1004 0 6 Image Chart
1999 8 26 00 34.4 126.6 1006 0 6 Image Chart
1999 8 26 06 35.4 129.9 1006 0 6 Image Chart
1999 8 26 12 36.3 132.2 1008 0 6 Image Chart
1999 8 26 18 37.2 134.9 1006 0 6 Image Chart
1999 8 27 00 37.8 136.6 1008 0 6 Image Chart
Japan Meteorological Agency Best Track Data | Correction Date : 2005-03-01
< Typhoon 199909 1999 Season Typhoon 199911 >

Help